Time;durP1;ratioP1;P1;durP2;ratioP2;P2;SDS_P1;SDS_P2;PMS_P1;PMS_P2;Temp;Humidity;BMP_temperature;BMP_pressure;BME280_temperature;BME280_humidity;BME280_pressure;Samples;Min_cycle;Max_cycle;Signal;HPM_P1;HPM_P2
2022/08/08 00:01:03;;;;;;;1.80;0.90;;;;;;;18.58;46.47;99602.10;237630;1194;139272;-58
2022/08/08 00:06:22;;;;;;;3.20;1.00;;;;;;;18.46;46.72;99598.81;237697;1194;140102;-59
2022/08/08 00:11:58;;;;;;;2.30;1.10;;;;;;;18.33;46.75;99599.73;237421;1195;139071;-57
2022/08/08 00:17:22;;;;;;;2.20;1.20;;;;;;;18.20;46.94;99602.62;237382;1195;140529;-59
2022/08/08 00:22:39;;;;;;;2.00;1.10;;;;;;;18.10;47.21;99599.92;237785;1194;140748;-56
2022/08/08 00:27:43;;;;;;;1.80;1.00;;;;;;;18.02;47.45;99598.11;237614;1194;139969;-59
2022/08/08 00:33:00;;;;;;;1.90;0.90;;;;;;;17.96;47.79;99589.77;237428;1195;139823;-58
2022/08/08 00:38:06;;;;;;;2.90;1.10;;;;;;;17.90;47.85;99589.61;237606;1195;141411;-58
2022/08/08 00:43:56;;;;;;;2.90;1.10;;;;;;;17.86;48.19;99587.59;237755;1194;140024;-56
2022/08/08 00:49:20;;;;;;;4.50;1.10;;;;;;;17.83;48.35;99586.58;237571;1194;139084;-56
2022/08/08 00:54:46;;;;;;;2.10;1.20;;;;;;;17.80;48.49;99585.39;237359;1195;140383;-58
2022/08/08 01:00:14;;;;;;;5.00;1.10;;;;;;;17.75;48.57;99576.83;237351;1195;139490;-57
2022/08/08 01:05:33;;;;;;;4.90;1.10;;;;;;;17.72;48.90;99573.80;237657;1194;140152;-58
2022/08/08 01:11:34;;;;;;;5.40;1.10;;;;;;;17.68;48.87;99584.39;237463;1194;139162;-56
2022/08/08 01:17:36;;;;;;;2.10;1.10;;;;;;;17.62;49.00;99593.28;237412;1195;139276;-59
2022/08/08 01:23:34;;;;;;;2.50;0.90;;;;;;;17.56;49.22;99593.26;236882;1195;139647;-59
2022/08/08 01:29:16;;;;;;;2.80;1.20;;;;;;;17.50;49.66;99581.17;237073;1195;140027;-58
2022/08/08 01:34:45;;;;;;;4.70;1.00;;;;;;;17.46;49.70;99576.98;237411;1195;139429;-58
2022/08/08 01:40:11;;;;;;;2.30;1.10;;;;;;;17.47;49.70;99578.74;237399;1195;139515;-59
2022/08/08 01:45:35;;;;;;;2.70;1.20;;;;;;;17.47;49.78;99577.83;237417;1195;139366;-59
2022/08/08 01:50:55;;;;;;;4.80;1.20;;;;;;;17.47;49.96;99583.41;237389;1195;140114;-59
2022/08/08 01:56:11;;;;;;;3.40;1.10;;;;;;;17.46;49.93;99584.05;237191;1195;139177;-58
2022/08/08 02:01:58;;;;;;;2.90;1.00;;;;;;;17.43;50.16;99579.29;237260;1195;138509;-58
2022/08/08 02:07:49;;;;;;;4.00;1.20;;;;;;;17.39;50.19;99585.29;237626;1194;139871;-58
2022/08/08 02:13:20;;;;;;;3.40;0.90;;;;;;;17.39;50.40;99587.86;237459;1195;139123;-59
2022/08/08 02:19:11;;;;;;;3.00;1.40;;;;;;;17.39;50.45;99598.77;237240;1195;139879;-58
2022/08/08 02:24:58;;;;;;;20.80;14.40;;;;;;;17.45;50.98;99601.86;237653;1195;140410;-58
2022/08/08 02:30:19;;;;;;;12.70;11.40;;;;;;;18.24;52.86;99594.63;237384;1195;140735;-57
2022/08/08 02:35:44;;;;;;;47.80;30.50;;;;;;;19.17;52.81;99589.63;237157;1195;140720;-58
2022/08/08 02:41:22;;;;;;;16.90;13.10;;;;;;;20.04;51.71;99587.53;236912;1195;141569;-57
2022/08/08 02:47:23;;;;;;;45.80;40.80;;;;;;;20.49;50.39;99581.72;237633;1194;139944;-59
2022/08/08 02:52:38;;;;;;;35.50;27.80;;;;;;;20.67;49.22;99585.59;237533;1195;139411;-58
2022/08/08 02:58:07;;;;;;;19.50;14.90;;;;;;;20.68;48.63;99584.61;237095;1195;140404;-58
2022/08/08 03:03:13;;;;;;;53.60;41.00;;;;;;;20.68;48.12;99587.77;237551;1195;139674;-58
2022/08/08 03:09:15;;;;;;;32.80;26.20;;;;;;;20.48;47.54;99587.20;237635;1195;139918;-58
2022/08/08 03:14:46;;;;;;;12.80;9.70;;;;;;;20.29;47.60;99588.59;237611;1195;139558;-58
2022/08/08 03:20:12;;;;;;;20.20;11.50;;;;;;;20.24;47.47;99583.44;237176;1195;140758;-59
2022/08/08 03:25:20;;;;;;;9.40;7.90;;;;;;;20.17;47.67;99580.36;237571;1195;140537;-58
2022/08/08 03:30:36;;;;;;;5.60;4.10;;;;;;;20.32;48.13;99568.80;237786;1194;139345;-59
2022/08/08 03:35:40;;;;;;;5.00;1.70;;;;;;;20.34;47.25;99577.55;237530;1195;139216;-58
2022/08/08 03:40:50;;;;;;;3.10;1.20;;;;;;;19.91;46.58;99587.26;237452;1195;140491;-59
2022/08/08 03:45:54;;;;;;;3.10;1.10;;;;;;;19.47;46.54;99590.37;237718;1195;139278;-58
2022/08/08 03:51:11;;;;;;;4.00;1.20;;;;;;;19.03;46.92;99595.33;237552;1194;140047;-60
2022/08/08 03:56:18;;;;;;;3.50;1.70;;;;;;;18.69;47.41;99610.17;237301;1195;139437;-58
2022/08/08 04:01:40;;;;;;;3.40;1.20;;;;;;;18.40;47.85;99620.59;236969;1195;139505;-59
2022/08/08 04:07:03;;;;;;;4.00;1.20;;;;;;;18.15;48.28;99627.52;237695;1194;139182;-59
2022/08/08 04:12:10;;;;;;;1.60;1.20;;;;;;;18.01;48.62;99630.47;237404;1195;139876;-58
2022/08/08 04:17:20;;;;;;;2.40;1.30;;;;;;;17.98;49.14;99636.17;237651;1195;139262;-57
2022/08/08 04:22:43;;;;;;;3.10;1.10;;;;;;;17.93;49.29;99646.05;237825;1193;138683;-59
2022/08/08 04:27:53;;;;;;;4.80;1.40;;;;;;;17.90;49.83;99651.72;237744;1193;142209;-60
2022/08/08 04:33:16;;;;;;;3.10;1.20;;;;;;;17.87;50.21;99650.67;237530;1195;140256;-60
2022/08/08 04:38:20;;;;;;;2.40;1.40;;;;;;;17.85;50.32;99649.00;237474;1195;140555;-60
2022/08/08 04:43:25;;;;;;;;;;;;;;;17.86;50.66;99641.60;237349;1195;139459;-59
2022/08/08 04:48:33;;;;;;;2.70;1.00;;;;;;;17.89;50.53;99642.46;237796;1194;126134;-59
2022/08/08 04:53:36;;;;;;;5.80;1.40;;;;;;;17.93;50.57;99650.89;237571;1194;140041;-59
2022/08/08 04:58:59;;;;;;;3.10;1.10;;;;;;;18.02;50.76;99649.43;237563;1194;139088;-59
2022/08/08 05:04:02;;;;;;;3.70;1.10;;;;;;;18.12;50.69;99649.14;237557;1195;139365;-60
2022/08/08 05:09:16;;;;;;;3.60;1.30;;;;;;;18.14;50.52;99658.15;237465;1194;140380;-58
2022/08/08 05:14:21;;;;;;;7.80;1.40;;;;;;;18.13;50.62;99669.17;237618;1195;139990;-58
2022/08/08 05:19:29;;;;;;;4.60;1.30;;;;;;;18.14;50.71;99674.69;237432;1195;139478;-57
2022/08/08 05:24:54;;;;;;;3.90;1.50;;;;;;;18.14;50.93;99673.61;237474;1194;139397;-58
2022/08/08 05:29:58;;;;;;;6.90;1.50;;;;;;;18.16;51.00;99663.73;236935;1195;139464;-59
2022/08/08 05:35:08;;;;;;;26.50;3.80;;;;;;;18.19;51.12;99653.18;237524;1195;138546;-58
2022/08/08 05:40:16;;;;;;;18.20;2.30;;;;;;;18.19;51.07;99654.42;237114;1196;139228;-59
2022/08/08 05:45:23;;;;;;;4.50;1.60;;;;;;;18.19;51.25;99654.14;236856;1196;139886;-59
2022/08/08 05:50:44;;;;;;;10.60;1.70;;;;;;;18.22;51.56;99666.48;237375;1196;138922;-59
2022/08/08 05:55:50;;;;;;;10.70;1.90;;;;;;;18.25;51.97;99668.61;237197;1195;139545;-59
2022/08/08 06:01:14;;;;;;;19.10;3.10;;;;;;;18.23;51.97;99670.33;237647;1195;139994;-60
2022/08/08 06:06:40;;;;;;;21.40;2.90;;;;;;;18.22;52.18;99672.35;237471;1195;139384;-62
2022/08/08 06:11:51;;;;;;;20.80;2.40;;;;;;;18.24;52.48;99684.46;237281;1196;139514;-61
2022/08/08 06:17:01;;;;;;;13.70;2.40;;;;;;;18.23;52.79;99686.53;237446;1195;236974;-61
2022/08/08 06:22:18;;;;;;;13.70;1.80;;;;;;;18.21;52.80;99692.25;237528;1194;139912;-60
2022/08/08 06:27:51;;;;;;;11.10;2.00;;;;;;;18.18;53.11;99696.91;237396;1195;139467;-61
2022/08/08 06:32:57;;;;;;;12.30;2.50;;;;;;;18.16;53.78;99694.39;237442;1195;140132;-61
2022/08/08 06:38:05;;;;;;;8.50;1.60;;;;;;;18.16;54.29;99696.56;237271;1195;139281;-61
2022/08/08 06:43:20;;;;;;;8.60;1.70;;;;;;;18.19;54.43;99701.89;237320;1195;139933;-58
2022/08/08 06:48:37;;;;;;;5.60;1.60;;;;;;;18.23;55.03;99703.05;237378;1195;140040;-58
2022/08/08 06:53:41;;;;;;;4.10;1.60;;;;;;;18.25;55.23;99711.84;237330;1195;140111;-60
2022/08/08 06:58:58;;;;;;;5.70;1.60;;;;;;;18.29;55.62;99705.96;237263;1196;139259;-61
2022/08/08 07:04:14;;;;;;;4.40;1.70;;;;;;;18.33;55.85;99707.77;237380;1194;139914;-59
2022/08/08 07:09:46;;;;;;;14.40;1.90;;;;;;;18.37;56.08;99708.30;237485;1193;140551;-60
2022/08/08 07:15:06;;;;;;;7.30;1.60;;;;;;;18.43;55.89;99708.35;237472;1194;140464;-59
2022/08/08 07:20:35;;;;;;;7.60;2.00;;;;;;;18.51;56.12;99700.48;237277;1195;140628;-58
2022/08/08 07:25:57;;;;;;;4.50;1.50;;;;;;;18.57;56.21;99703.05;237234;1195;139461;-57
2022/08/08 07:31:04;;;;;;;97.90;73.00;;;;;;;18.82;56.88;99711.32;237203;1195;139885;-59
2022/08/08 07:36:10;;;;;;;11.50;5.40;;;;;;;19.45;56.94;99718.66;237348;1195;140744;-56
2022/08/08 07:41:18;;;;;;;8.00;3.40;;;;;;;19.75;56.24;99719.23;237458;1194;139242;-57
2022/08/08 07:46:28;;;;;;;8.50;3.70;;;;;;;19.92;55.63;99726.23;237234;1195;139562;-56
2022/08/08 07:51:41;;;;;;;5.80;2.60;;;;;;;20.01;55.41;99731.48;237307;1195;139037;-57
2022/08/08 07:57:10;;;;;;;3.60;1.50;;;;;;;20.31;55.39;99727.90;237214;1195;140267;-58
2022/08/08 08:02:25;;;;;;;4.80;1.70;;;;;;;20.55;55.12;99728.59;237226;1195;139282;-57
2022/08/08 08:07:41;;;;;;;77.00;53.40;;;;;;;20.87;54.86;99728.91;237187;1195;139321;-57
2022/08/08 08:12:57;;;;;;;57.10;40.10;;;;;;;21.06;54.39;99729.94;237369;1195;139491;-59
2022/08/08 08:18:04;;;;;;;34.10;24.60;;;;;;;21.40;54.23;99723.51;237282;1195;140236;-58
2022/08/08 08:23:17;;;;;;;23.10;15.40;;;;;;;21.66;53.62;99716.47;237180;1195;139993;-58
2022/08/08 08:28:21;;;;;;;12.90;9.20;;;;;;;21.80;53.15;99717.63;237182;1195;139780;-58
2022/08/08 08:33:28;;;;;;;7.90;3.10;;;;;;;21.87;52.67;99719.78;237266;1194;140176;-58
2022/08/08 08:38:34;;;;;;;6.30;4.00;;;;;;;21.97;52.42;99727.36;237162;1195;139486;-58
2022/08/08 08:43:45;;;;;;;6.30;2.30;;;;;;;22.07;52.11;99735.02;237158;1196;139459;-57
2022/08/08 08:48:50;;;;;;;8.50;3.00;;;;;;;22.16;51.91;99736.33;237147;1195;138964;-57
2022/08/08 08:53:55;;;;;;;12.80;3.20;;;;;;;22.25;51.66;99733.80;237344;1195;139549;-58
2022/08/08 08:59:14;;;;;;;6.40;2.10;;;;;;;22.40;51.37;99733.96;237403;1194;139883;-58
2022/08/08 09:04:33;;;;;;;6.30;2.10;;;;;;;22.55;51.04;99733.68;237284;1195;139632;-57
2022/08/08 09:09:52;;;;;;;6.20;1.30;;;;;;;22.62;50.62;99732.55;237223;1195;139709;-58
2022/08/08 09:15:01;;;;;;;4.10;1.50;;;;;;;22.69;50.35;99728.27;237144;1195;140015;-58
2022/08/08 09:20:11;;;;;;;3.50;1.30;;;;;;;22.72;50.10;99728.35;237284;1195;139825;-57
2022/08/08 09:25:36;;;;;;;6.50;1.40;;;;;;;22.75;49.85;99724.96;237196;1195;138943;-58
2022/08/08 09:31:04;;;;;;;;;;;;;;;22.86;49.65;99718.06;237173;1195;139430;-59
2022/08/08 09:36:21;;;;;;;9.10;1.50;;;;;;;23.00;49.38;99716.45;236889;1195;217684;-57
2022/08/08 09:41:40;;;;;;;3.70;1.20;;;;;;;23.15;48.95;99707.52;237267;1195;139398;-57
2022/08/08 09:47:06;;;;;;;1.90;0.70;;;;;;;23.28;48.24;99709.38;237481;1194;139874;-57
2022/08/08 09:52:31;;;;;;;3.70;0.90;;;;;;;23.40;47.40;99710.27;237328;1194;142423;-57
2022/08/08 09:58:05;;;;;;;1.20;0.60;;;;;;;23.55;46.78;99706.17;237158;1195;140037;-57
2022/08/08 10:03:13;;;;;;;1.60;0.80;;;;;;;23.63;46.27;99702.66;237296;1195;140146;-57
2022/08/08 10:08:21;;;;;;;2.60;0.70;;;;;;;23.71;45.93;99706.16;237223;1195;139145;-56
2022/08/08 10:13:30;;;;;;;3.30;0.70;;;;;;;23.78;45.53;99700.73;237275;1194;140605;-57
2022/08/08 10:18:38;;;;;;;2.50;0.90;;;;;;;23.75;45.11;99697.70;237365;1194;139116;-58
2022/08/08 10:23:43;;;;;;;4.50;0.80;;;;;;;23.85;45.10;99698.34;237082;1195;139357;-57
2022/08/08 10:29:20;;;;;;;69.70;48.30;;;;;;;24.04;44.85;99697.11;237065;1195;139776;-57
2022/08/08 10:34:28;;;;;;;5.70;2.80;;;;;;;24.13;44.50;99691.91;237232;1195;139839;-58
2022/08/08 10:39:42;;;;;;;4.00;1.50;;;;;;;24.22;44.24;99690.55;237249;1194;139812;-57
2022/08/08 10:45:06;;;;;;;6.80;1.40;;;;;;;24.32;43.97;99688.10;236922;1195;139440;-58
2022/08/08 10:50:10;;;;;;;5.60;1.50;;;;;;;24.41;43.78;99689.95;237176;1195;139486;-58
2022/08/08 10:55:18;;;;;;;4.90;1.10;;;;;;;24.48;43.77;99692.38;237179;1195;140654;-58
2022/08/08 11:00:44;;;;;;;4.50;1.30;;;;;;;24.52;43.24;99689.21;237219;1195;138752;-57
2022/08/08 11:06:06;;;;;;;4.10;1.20;;;;;;;24.53;43.16;99686.73;237318;1194;139596;-58
2022/08/08 11:11:14;;;;;;;4.20;1.20;;;;;;;24.56;43.04;99682.79;237067;1194;139254;-58
2022/08/08 11:16:42;;;;;;;3.20;1.10;;;;;;;24.60;42.71;99669.17;237041;1195;140000;-58
2022/08/08 11:21:51;;;;;;;6.20;1.50;;;;;;;24.62;42.71;99666.34;236938;1195;138877;-57
2022/08/08 11:27:03;;;;;;;4.10;1.20;;;;;;;24.85;42.51;99666.89;237291;1194;139303;-58
2022/08/08 11:32:24;;;;;;;2.00;0.90;;;;;;;24.89;42.08;99666.67;237313;1195;140628;-58
2022/08/08 11:37:32;;;;;;;5.20;1.10;;;;;;;24.88;41.87;99667.50;237321;1194;139286;-58
2022/08/08 11:42:57;;;;;;;2.70;1.00;;;;;;;24.97;41.75;99664.96;237284;1194;139163;-57
2022/08/08 11:48:00;;;;;;;1.80;0.90;;;;;;;25.12;41.78;99660.64;237194;1195;141240;-58
2022/08/08 11:53:08;;;;;;;3.00;0.80;;;;;;;25.29;41.49;99660.98;237477;1195;141599;-58
2022/08/08 11:58:16;;;;;;;3.00;1.10;;;;;;;25.37;41.16;99660.75;237569;1194;139099;-58
2022/08/08 12:03:32;;;;;;;4.80;1.60;;;;;;;25.40;41.03;99662.83;237262;1194;139774;-57
2022/08/08 12:08:36;;;;;;;3.10;0.90;;;;;;;25.44;40.94;99656.92;237290;1195;139166;-58
2022/08/08 12:13:41;;;;;;;4.50;1.20;;;;;;;25.46;40.81;99650.77;237250;1195;139573;-58
2022/08/08 12:19:10;;;;;;;4.40;1.10;;;;;;;25.47;40.60;99653.52;236924;1195;139155;-58
2022/08/08 12:24:20;;;;;;;3.00;1.10;;;;;;;25.32;40.39;99654.02;237301;1194;139298;-58
2022/08/08 12:29:31;;;;;;;3.50;1.00;;;;;;;25.17;40.28;99643.27;237465;1195;139818;-58
2022/08/08 12:34:56;;;;;;;5.00;0.90;;;;;;;25.13;40.49;99633.48;237545;1195;139135;-58
2022/08/08 12:40:17;;;;;;;3.40;1.00;;;;;;;25.29;40.35;99636.66;237364;1194;140226;-57
2022/08/08 12:45:33;;;;;;;2.20;1.00;;;;;;;25.33;40.14;99628.04;236588;1195;140311;-58
2022/08/08 12:50:57;;;;;;;4.20;1.30;;;;;;;25.28;40.04;99624.10;237317;1194;139166;-58
2022/08/08 12:56:06;;;;;;;2.20;1.00;;;;;;;25.20;39.91;99629.02;237099;1194;139576;-59
2022/08/08 13:01:35;;;;;;;4.20;0.90;;;;;;;25.12;39.87;99633.36;237210;1195;139218;-58
2022/08/08 13:06:59;;;;;;;2.50;0.80;;;;;;;25.12;39.93;99636.46;237338;1194;140356;-58
2022/08/08 13:12:23;;;;;;;4.20;1.20;;;;;;;25.22;40.03;99628.92;237664;1194;238893;-58
2022/08/08 13:17:42;;;;;;;3.80;0.90;;;;;;;25.76;40.08;99624.92;237255;1195;139155;-60
2022/08/08 13:23:06;;;;;;;1.70;0.90;;;;;;;26.12;39.76;99620.70;237279;1195;139467;-58
2022/08/08 13:28:30;;;;;;;1.70;0.90;;;;;;;26.50;39.32;99616.88;237156;1195;139229;-58
2022/08/08 13:33:34;;;;;;;5.20;1.10;;;;;;;26.58;38.73;99616.38;237529;1194;139109;-58
2022/08/08 13:38:45;;;;;;;4.50;0.90;;;;;;;26.64;38.63;99612.35;237429;1194;139292;-59
2022/08/08 13:43:48;;;;;;;5.80;1.20;;;;;;;26.98;38.59;99613.54;237552;1194;139760;-59
2022/08/08 13:48:53;;;;;;;4.60;1.20;;;;;;;27.55;38.41;99605.20;237346;1195;139564;-58
2022/08/08 13:54:20;;;;;;;2.40;0.90;;;;;;;27.97;37.68;99602.27;237564;1195;139932;-58
2022/08/08 13:59:33;;;;;;;4.30;0.80;;;;;;;28.07;36.97;99597.49;237459;1195;138890;-58
2022/08/08 14:04:53;;;;;;;3.90;1.40;;;;;;;27.94;36.55;99600.20;236778;1195;139181;-58
2022/08/08 14:10:01;;;;;;;4.50;0.80;;;;;;;27.98;36.29;99596.43;237103;1195;139966;-59
2022/08/08 14:15:27;;;;;;;5.70;0.80;;;;;;;28.18;36.08;99590.45;237618;1194;139266;-59
2022/08/08 14:20:33;;;;;;;;;;;;;;;28.42;35.68;99595.45;236673;1195;140029;-58
2022/08/08 14:25:56;;;;;;;129.80;100.40;;;;;;;28.57;35.27;99596.26;237056;1195;127070;-58
2022/08/08 14:31:13;;;;;;;15.90;10.10;;;;;;;28.49;35.07;99593.55;237312;1194;140165;-58
2022/08/08 14:36:37;;;;;;;7.10;3.70;;;;;;;28.19;34.81;99596.18;237557;1194;140779;-58
2022/08/08 14:41:43;;;;;;;6.20;2.60;;;;;;;28.01;34.74;99595.48;236727;1195;138730;-58
2022/08/08 14:46:57;;;;;;;7.40;1.40;;;;;;;27.64;34.57;99598.84;236937;1195;139132;-58
2022/08/08 14:52:07;;;;;;;2.00;1.30;;;;;;;27.27;34.59;99595.83;236995;1194;139076;-59
2022/08/08 14:57:10;;;;;;;1.90;1.00;;;;;;;27.06;34.95;99600.02;236767;1194;139922;-58
2022/08/08 15:02:22;;;;;;;4.80;1.00;;;;;;;26.84;35.03;99595.55;237036;1195;139307;-60
2022/08/08 15:07:32;;;;;;;4.20;1.10;;;;;;;26.58;35.14;99600.47;237513;1195;139485;-59
2022/08/08 15:12:47;;;;;;;2.90;1.00;;;;;;;26.37;35.29;99596.59;237099;1195;139356;-58
2022/08/08 15:17:50;;;;;;;2.80;1.10;;;;;;;26.21;35.58;99594.21;237251;1195;139055;-57
2022/08/08 15:22:53;;;;;;;5.10;1.10;;;;;;;26.07;35.77;99598.19;236921;1195;139053;-58
2022/08/08 15:27:56;;;;;;;2.50;1.10;;;;;;;25.94;35.89;99599.55;237315;1194;139093;-59
2022/08/08 15:33:19;;;;;;;4.90;1.10;;;;;;;25.78;36.22;99600.17;236643;1195;139130;-59
2022/08/08 15:38:42;;;;;;;4.40;1.30;;;;;;;25.68;36.29;99597.45;236840;1194;138942;-59
2022/08/08 15:43:52;;;;;;;5.40;1.00;;;;;;;25.59;36.46;99601.63;237622;1195;138730;-59
2022/08/08 15:49:03;;;;;;;7.30;1.40;;;;;;;25.51;36.78;99607.14;237309;1194;139196;-59
2022/08/08 15:54:06;;;;;;;10.20;1.40;;;;;;;25.45;36.85;99610.09;237335;1195;139066;-59
2022/08/08 15:59:29;;;;;;;6.10;1.70;;;;;;;25.39;37.05;99607.98;237776;1193;141729;-57
2022/08/08 16:04:52;;;;;;;10.00;1.30;;;;;;;25.33;37.29;99612.30;237715;1194;139414;-58
2022/08/08 16:10:00;;;;;;;9.70;1.50;;;;;;;25.27;37.30;99609.87;237585;1194;139971;-58
2022/08/08 16:15:24;;;;;;;5.50;1.80;;;;;;;25.18;37.34;99611.02;237260;1195;138854;-57
2022/08/08 16:20:34;;;;;;;7.90;2.10;;;;;;;25.09;37.65;99619.23;237396;1194;139589;-57
2022/08/08 16:25:37;;;;;;;8.30;3.50;;;;;;;25.00;37.77;99625.48;237163;1195;140604;-59
2022/08/08 16:30:56;;;;;;;13.00;2.80;;;;;;;24.92;38.03;99622.18;237389;1195;139062;-58
2022/08/08 16:35:59;;;;;;;5.30;2.20;;;;;;;24.82;38.15;99626.52;237517;1195;140193;-58
2022/08/08 16:41:03;;;;;;;4.90;1.80;;;;;;;24.71;38.19;99627.18;237450;1195;139359;-59
2022/08/08 16:46:06;;;;;;;5.70;2.10;;;;;;;24.62;38.37;99628.27;237624;1194;140007;-58
2022/08/08 16:51:31;;;;;;;4.40;2.10;;;;;;;24.55;38.53;99628.35;237576;1195;139119;-59
2022/08/08 16:56:53;;;;;;;5.80;2.10;;;;;;;24.50;38.73;99629.27;237543;1195;138940;-58
2022/08/08 17:02:18;;;;;;;6.70;1.70;;;;;;;24.45;39.07;99634.48;237334;1194;139226;-58
2022/08/08 17:07:42;;;;;;;3.90;1.40;;;;;;;24.41;39.33;99632.22;237623;1195;139016;-58
2022/08/08 17:12:50;;;;;;;5.40;1.50;;;;;;;24.39;39.39;99636.58;237288;1195;139021;-58
2022/08/08 17:17:55;;;;;;;4.10;1.40;;;;;;;24.38;39.40;99632.67;237355;1195;139087;-58
2022/08/08 17:23:07;;;;;;;2.90;1.30;;;;;;;24.35;39.51;99635.58;237831;1194;139258;-58
2022/08/08 17:28:27;;;;;;;6.90;1.50;;;;;;;24.30;39.58;99644.98;237640;1193;139404;-58
2022/08/08 17:33:37;;;;;;;5.20;1.90;;;;;;;24.27;39.77;99648.48;237334;1195;140276;-59
2022/08/08 17:39:00;;;;;;;6.70;1.90;;;;;;;24.21;39.83;99649.97;237240;1195;139102;-58
2022/08/08 17:44:23;;;;;;;4.80;2.30;;;;;;;24.17;40.08;99646.65;237660;1195;139345;-58
2022/08/08 17:49:31;;;;;;;6.30;1.90;;;;;;;24.13;40.25;99645.96;237403;1195;139578;-58
2022/08/08 17:54:45;;;;;;;2.60;1.50;;;;;;;24.07;40.39;99651.65;237234;1195;139412;-59
2022/08/08 17:59:58;;;;;;;5.40;1.80;;;;;;;24.03;40.53;99657.20;237127;1196;139175;-58
2022/08/08 18:05:07;;;;;;;5.70;1.60;;;;;;;23.98;40.67;99666.33;237513;1195;139183;-58
2022/08/08 18:10:16;;;;;;;7.40;2.00;;;;;;;23.92;40.92;99673.48;237397;1194;139463;-59
2022/08/08 18:15:19;;;;;;;6.60;2.00;;;;;;;23.85;41.03;99678.88;237521;1195;139251;-59
2022/08/08 18:20:24;;;;;;;5.00;1.70;;;;;;;23.76;41.34;99677.89;237517;1195;139340;-58
2022/08/08 18:25:46;;;;;;;8.40;2.10;;;;;;;23.65;41.70;99680.49;237284;1195;139516;-58
2022/08/08 18:30:49;;;;;;;6.30;2.10;;;;;;;23.55;42.03;99683.74;237326;1194;139250;-58
2022/08/08 18:35:52;;;;;;;6.40;2.20;;;;;;;23.45;42.20;99694.33;237724;1194;139065;-58
2022/08/08 18:41:05;;;;;;;5.10;2.20;;;;;;;23.34;42.42;99702.45;237658;1195;139948;-58
2022/08/08 18:46:08;;;;;;;7.10;3.10;;;;;;;23.24;42.67;99715.99;237277;1195;139730;-58
2022/08/08 18:51:31;;;;;;;5.60;2.00;;;;;;;23.15;42.93;99723.07;237287;1195;139519;-59
2022/08/08 18:56:54;;;;;;;5.50;2.30;;;;;;;23.06;43.20;99726.50;237455;1195;139298;-59
2022/08/08 19:01:58;;;;;;;217.60;168.50;;;;;;;23.01;43.66;99728.49;237503;1195;139296;-59
2022/08/08 19:07:25;;;;;;;42.60;21.50;;;;;;;23.00;44.15;99727.00;237218;1195;139730;-59
2022/08/08 19:12:34;;;;;;;13.60;5.70;;;;;;;22.99;44.43;99729.58;237181;1195;139843;-58
2022/08/08 19:17:42;;;;;;;10.00;4.50;;;;;;;22.97;44.56;99733.94;237620;1195;138695;-59
2022/08/08 19:23:06;;;;;;;41.20;28.40;;;;;;;22.97;44.82;99733.98;237440;1194;139395;-59
2022/08/08 19:28:10;;;;;;;607.60;471.60;;;;;;;22.97;45.11;99735.59;237295;1195;139370;-59
2022/08/08 19:33:22;;;;;;;36.80;28.10;;;;;;;22.96;45.39;99733.69;237280;1195;140215;-59
2022/08/08 19:38:26;;;;;;;11.70;4.90;;;;;;;22.96;45.48;99724.48;237575;1195;141100;-57
2022/08/08 19:43:29;;;;;;;5.50;2.60;;;;;;;22.88;45.57;99722.39;237475;1194;139512;-57
2022/08/08 19:48:33;;;;;;;6.70;2.60;;;;;;;22.73;45.70;99724.10;237243;1195;139368;-58
2022/08/08 19:53:36;;;;;;;9.80;2.50;;;;;;;22.56;45.88;99728.52;237351;1195;139615;-57
2022/08/08 19:58:54;;;;;;;11.50;3.30;;;;;;;22.39;46.07;99727.16;237756;1193;139041;-57
2022/08/08 20:03:57;;;;;;;10.50;3.50;;;;;;;22.26;46.42;99734.11;237570;1195;140565;-56
2022/08/08 20:09:04;;;;;;;8.90;3.80;;;;;;;22.12;46.71;99741.17;237481;1194;139514;-57
2022/08/08 20:14:10;;;;;;;9.50;3.70;;;;;;;22.01;46.99;99739.56;237312;1195;139029;-57
2022/08/08 20:19:33;;;;;;;8.10;4.00;;;;;;;21.90;47.17;99730.18;237601;1194;139654;-57
2022/08/08 20:24:44;;;;;;;11.90;4.20;;;;;;;21.78;47.57;99729.73;237227;1195;139282;-56
2022/08/08 20:29:47;;;;;;;13.60;4.10;;;;;;;21.67;47.98;99735.34;237205;1196;139707;-57
2022/08/08 20:35:04;;;;;;;7.10;3.90;;;;;;;21.58;48.17;99740.55;237262;1195;140482;-56
2022/08/08 20:40:10;;;;;;;10.10;4.50;;;;;;;21.50;48.52;99737.48;237519;1195;139357;-57
2022/08/08 20:45:19;;;;;;;10.40;3.80;;;;;;;21.42;48.58;99737.00;237191;1195;139594;-57
2022/08/08 20:50:41;;;;;;;12.80;3.50;;;;;;;21.33;48.87;99737.89;237123;1195;140226;-57
2022/08/08 20:55:45;;;;;;;8.00;3.70;;;;;;;21.24;49.00;99740.33;237112;1195;140192;-57
2022/08/08 21:00:53;;;;;;;8.40;3.40;;;;;;;21.19;49.23;99743.50;237353;1194;139878;-56
2022/08/08 21:05:55;;;;;;;11.00;3.40;;;;;;;21.17;49.48;99744.42;237711;1193;139144;-57
2022/08/08 21:11:01;;;;;;;8.60;3.60;;;;;;;21.17;49.76;99737.06;237338;1195;139599;-57
2022/08/08 21:16:05;;;;;;;8.70;3.20;;;;;;;21.16;49.94;99736.56;237381;1195;140617;-58
2022/08/08 21:21:30;;;;;;;10.50;3.20;;;;;;;21.15;50.11;99738.80;237303;1195;139144;-57
2022/08/08 21:26:43;;;;;;;6.80;2.90;;;;;;;21.16;50.26;99740.20;237269;1195;139845;-57
2022/08/08 21:31:46;;;;;;;6.30;3.10;;;;;;;21.16;50.37;99746.73;237227;1195;139086;-57
2022/08/08 21:37:01;;;;;;;4.80;2.20;;;;;;;21.15;50.40;99746.44;237341;1195;139448;-59
2022/08/08 21:42:18;;;;;;;8.70;2.80;;;;;;;21.17;50.36;99749.35;237395;1195;139963;-56
2022/08/08 21:47:25;;;;;;;11.10;3.20;;;;;;;21.17;50.51;99752.34;237474;1195;140187;-57
2022/08/08 21:52:54;;;;;;;7.80;2.50;;;;;;;21.17;50.49;99746.22;237354;1195;140843;-57
2022/08/08 21:58:17;;;;;;;6.00;2.50;;;;;;;21.17;50.53;99748.61;237352;1195;139406;-57
2022/08/08 22:03:26;;;;;;;4.10;2.40;;;;;;;21.17;50.51;99746.65;237340;1195;139411;-57
2022/08/08 22:08:29;;;;;;;6.80;2.40;;;;;;;21.16;50.57;99755.51;237184;1195;139427;-57
2022/08/08 22:13:43;;;;;;;6.00;3.10;;;;;;;21.15;50.49;99750.09;237298;1194;139133;-57
2022/08/08 22:18:53;;;;;;;7.90;3.20;;;;;;;21.13;50.54;99749.64;237404;1194;139641;-56
2022/08/08 22:23:57;;;;;;;10.80;3.00;;;;;;;21.15;50.51;99747.65;237493;1195;139071;-57
2022/08/08 22:29:02;;;;;;;9.70;3.60;;;;;;;21.20;50.55;99749.05;237312;1194;138876;-58
2022/08/08 22:34:25;;;;;;;8.50;3.00;;;;;;;21.20;50.51;99749.69;237281;1195;139855;-57
2022/08/08 22:39:29;;;;;;;5.90;3.10;;;;;;;21.18;50.52;99748.83;237330;1194;139849;-57
2022/08/08 22:44:48;;;;;;;10.10;2.80;;;;;;;21.21;50.43;99751.80;237297;1195;139482;-58
2022/08/08 22:49:52;;;;;;;5.40;2.70;;;;;;;21.20;50.46;99756.04;237260;1195;139291;-57
2022/08/08 22:55:03;;;;;;;12.50;3.20;;;;;;;21.17;50.35;99754.34;237254;1195;139327;-58
2022/08/08 23:00:10;;;;;;;10.60;2.90;;;;;;;21.13;50.56;99754.01;237358;1195;139480;-58
2022/08/08 23:05:15;;;;;;;8.30;3.10;;;;;;;21.10;50.52;99755.40;237512;1195;141689;-57
2022/08/08 23:10:18;;;;;;;4.30;2.80;;;;;;;21.08;50.52;99755.55;237250;1195;139758;-58
2022/08/08 23:15:26;;;;;;;8.00;3.00;;;;;;;21.09;50.51;99756.77;237249;1194;139829;-58
2022/08/08 23:20:49;;;;;;;5.40;2.70;;;;;;;21.01;50.65;99759.79;237237;1195;140217;-58
2022/08/08 23:25:57;;;;;;;6.50;2.70;;;;;;;20.96;50.52;99763.42;237294;1195;139050;-57
2022/08/08 23:31:01;;;;;;;6.60;2.40;;;;;;;20.89;50.60;99759.70;237245;1195;139107;-58
2022/08/08 23:36:04;;;;;;;7.10;2.80;;;;;;;20.84;50.54;99764.98;237472;1194;139374;-59
2022/08/08 23:41:12;;;;;;;10.90;2.90;;;;;;;20.87;50.75;99764.73;237449;1195;139295;-57
2022/08/08 23:46:30;;;;;;;8.30;2.70;;;;;;;20.89;50.74;99756.98;237314;1195;139656;-58
2022/08/08 23:51:53;;;;;;;5.90;2.50;;;;;;;20.90;50.70;99753.66;237224;1195;139951;-57
2022/08/08 23:57:10;;;;;;;6.40;2.50;;;;;;;20.88;50.64;99753.66;237132;1196;139505;-57
